sensor_id;sensor_type;location;lat;lon;timestamp;pressure;altitude;pressure_sealevel;temperature;humidity
70544;BME280;58097;48.364;-1.224;2023-05-10T00:01:26;99633.13;;;11.38;91.87
70544;BME280;58097;48.364;-1.224;2023-05-10T00:03:52;99626.56;;;11.39;91.85
70544;BME280;58097;48.364;-1.224;2023-05-10T00:06:17;99636.22;;;11.43;91.58
70544;BME280;58097;48.364;-1.224;2023-05-10T00:08:43;99636.41;;;11.42;91.20
70544;BME280;58097;48.364;-1.224;2023-05-10T00:11:08;99626.72;;;11.46;91.38
70544;BME280;58097;48.364;-1.224;2023-05-10T00:13:34;99641.75;;;11.43;91.32
70544;BME280;58097;48.364;-1.224;2023-05-10T00:15:59;99637.44;;;11.41;91.66
70544;BME280;58097;48.364;-1.224;2023-05-10T00:18:25;99625.00;;;11.37;91.71
70544;BME280;58097;48.364;-1.224;2023-05-10T00:20:50;99634.34;;;11.36;91.82
70544;BME280;58097;48.364;-1.224;2023-05-10T00:23:16;99630.53;;;11.29;92.06
70544;BME280;58097;48.364;-1.224;2023-05-10T00:25:41;99631.59;;;11.28;92.31
70544;BME280;58097;48.364;-1.224;2023-05-10T00:28:06;99631.41;;;11.29;91.97
70544;BME280;58097;48.364;-1.224;2023-05-10T00:30:32;99625.31;;;11.26;92.34
70544;BME280;58097;48.364;-1.224;2023-05-10T00:32:57;99628.28;;;11.24;92.66
70544;BME280;58097;48.364;-1.224;2023-05-10T00:35:23;99622.75;;;11.24;92.25
70544;BME280;58097;48.364;-1.224;2023-05-10T00:37:48;99624.47;;;11.25;92.24
70544;BME280;58097;48.364;-1.224;2023-05-10T00:40:14;99632.44;;;11.28;91.91
70544;BME280;58097;48.364;-1.224;2023-05-10T00:42:39;99631.94;;;11.33;91.75
70544;BME280;58097;48.364;-1.224;2023-05-10T00:45:05;99633.81;;;11.32;91.63
70544;BME280;58097;48.364;-1.224;2023-05-10T00:47:31;99631.06;;;11.32;91.68
70544;BME280;58097;48.364;-1.224;2023-05-10T00:49:57;99635.22;;;11.36;91.24
70544;BME280;58097;48.364;-1.224;2023-05-10T00:52:22;99632.09;;;11.39;91.08
70544;BME280;58097;48.364;-1.224;2023-05-10T00:54:50;99634.16;;;11.45;90.99
70544;BME280;58097;48.364;-1.224;2023-05-10T00:57:17;99632.44;;;11.44;90.97
70544;BME280;58097;48.364;-1.224;2023-05-10T00:59:42;99637.28;;;11.42;90.92
70544;BME280;58097;48.364;-1.224;2023-05-10T01:02:08;99631.38;;;11.45;90.82
70544;BME280;58097;48.364;-1.224;2023-05-10T01:04:34;99626.03;;;11.44;90.42
70544;BME280;58097;48.364;-1.224;2023-05-10T01:07:00;99636.94;;;11.45;90.51
70544;BME280;58097;48.364;-1.224;2023-05-10T01:09:26;99634.84;;;11.47;90.16
70544;BME280;58097;48.364;-1.224;2023-05-10T01:11:53;99633.13;;;11.46;90.19
70544;BME280;58097;48.364;-1.224;2023-05-10T01:14:19;99637.44;;;11.49;90.18
70544;BME280;58097;48.364;-1.224;2023-05-10T01:16:45;99640.03;;;11.42;90.48
70544;BME280;58097;48.364;-1.224;2023-05-10T01:19:24;99639.69;;;11.45;90.18
70544;BME280;58097;48.364;-1.224;2023-05-10T01:24:54;99632.44;;;11.36;90.66
70544;BME280;58097;48.364;-1.224;2023-05-10T01:33:15;99646.63;;;11.33;91.23
70544;BME280;58097;48.364;-1.224;2023-05-10T01:35:50;99644.91;;;11.32;91.10
70544;BME280;58097;48.364;-1.224;2023-05-10T01:38:31;99643.69;;;11.35;90.83
70544;BME280;58097;48.364;-1.224;2023-05-10T01:41:04;99641.59;;;11.37;90.94
70544;BME280;58097;48.364;-1.224;2023-05-10T01:43:42;99637.97;;;11.36;90.67
70544;BME280;58097;48.364;-1.224;2023-05-10T01:46:16;99642.63;;;11.36;90.92
70544;BME280;58097;48.364;-1.224;2023-05-10T01:48:51;99640.91;;;11.35;91.33
70544;BME280;58097;48.364;-1.224;2023-05-10T01:51:23;99647.66;;;11.32;91.16
70544;BME280;58097;48.364;-1.224;2023-05-10T01:53:49;99645.94;;;11.31;91.42
70544;BME280;58097;48.364;-1.224;2023-05-10T01:56:19;99642.31;;;11.31;90.98
70544;BME280;58097;48.364;-1.224;2023-05-10T01:58:47;99640.06;;;11.34;90.96
70544;BME280;58097;48.364;-1.224;2023-05-10T02:01:14;99641.59;;;11.29;90.74
70544;BME280;58097;48.364;-1.224;2023-05-10T02:03:41;99641.75;;;11.27;90.90
70544;BME280;58097;48.364;-1.224;2023-05-10T02:06:09;99648.31;;;11.26;90.68
70544;BME280;58097;48.364;-1.224;2023-05-10T02:08:35;99642.28;;;11.23;90.89
70544;BME280;58097;48.364;-1.224;2023-05-10T02:11:03;99645.72;;;11.25;90.70
70544;BME280;58097;48.364;-1.224;2023-05-10T02:13:31;99647.81;;;11.23;90.68
70544;BME280;58097;48.364;-1.224;2023-05-10T02:15:59;99644.88;;;11.24;90.60
70544;BME280;58097;48.364;-1.224;2023-05-10T02:18:27;99640.53;;;11.22;90.67
70544;BME280;58097;48.364;-1.224;2023-05-10T02:20:54;99655.94;;;11.24;90.37
70544;BME280;58097;48.364;-1.224;2023-05-10T02:23:20;99661.97;;;11.20;90.55
70544;BME280;58097;48.364;-1.224;2023-05-10T02:25:47;99659.38;;;11.18;90.73
70544;BME280;58097;48.364;-1.224;2023-05-10T02:28:14;99660.94;;;11.21;90.63
70544;BME280;58097;48.364;-1.224;2023-05-10T02:30:41;99661.63;;;11.23;90.53
70544;BME280;58097;48.364;-1.224;2023-05-10T02:33:06;99653.34;;;11.23;90.86
70544;BME280;58097;48.364;-1.224;2023-05-10T02:35:33;99658.34;;;11.19;91.07
70544;BME280;58097;48.364;-1.224;2023-05-10T02:38:00;99658.34;;;11.19;90.78
70544;BME280;58097;48.364;-1.224;2023-05-10T02:40:27;99660.59;;;11.15;91.23
70544;BME280;58097;48.364;-1.224;2023-05-10T02:42:54;99654.91;;;11.17;91.17
70544;BME280;58097;48.364;-1.224;2023-05-10T02:45:24;99658.34;;;11.19;90.86
70544;BME280;58097;48.364;-1.224;2023-05-10T02:47:51;99651.94;;;11.18;91.05
70544;BME280;58097;48.364;-1.224;2023-05-10T02:50:17;99666.31;;;11.22;90.74
70544;BME280;58097;48.364;-1.224;2023-05-10T02:52:46;99669.25;;;11.21;91.03
70544;BME280;58097;48.364;-1.224;2023-05-10T02:55:15;99671.84;;;11.22;90.83
70544;BME280;58097;48.364;-1.224;2023-05-10T02:58:01;99670.44;;;11.18;90.75
70544;BME280;58097;48.364;-1.224;2023-05-10T03:00:27;99672.00;;;11.21;90.61
70544;BME280;58097;48.364;-1.224;2023-05-10T03:02:53;99663.88;;;11.19;90.57
70544;BME280;58097;48.364;-1.224;2023-05-10T03:05:18;99675.97;;;11.18;90.94
70544;BME280;58097;48.364;-1.224;2023-05-10T03:07:45;99673.91;;;11.12;91.13
70544;BME280;58097;48.364;-1.224;2023-05-10T03:10:11;99675.63;;;11.13;90.92
70544;BME280;58097;48.364;-1.224;2023-05-10T03:15:59;99683.94;;;11.05;91.28
70544;BME280;58097;48.364;-1.224;2023-05-10T03:18:28;99689.28;;;11.06;91.21
70544;BME280;58097;48.364;-1.224;2023-05-10T03:20:59;99690.16;;;11.07;90.85
70544;BME280;58097;48.364;-1.224;2023-05-10T03:23:35;99685.50;;;11.07;90.77
70544;BME280;58097;48.364;-1.224;2023-05-10T03:26:01;99683.22;;;11.03;91.14
70544;BME280;58097;48.364;-1.224;2023-05-10T03:28:26;99677.19;;;11.07;90.81
70544;BME280;58097;48.364;-1.224;2023-05-10T03:30:53;99684.78;;;11.05;91.25
70544;BME280;58097;48.364;-1.224;2023-05-10T03:33:20;99683.94;;;11.05;90.96
70544;BME280;58097;48.364;-1.224;2023-05-10T03:35:45;99685.31;;;11.01;91.20
70544;BME280;58097;48.364;-1.224;2023-05-10T03:38:12;99694.13;;;11.04;90.85
70544;BME280;58097;48.364;-1.224;2023-05-10T03:40:37;99681.50;;;11.02;90.89
70544;BME280;58097;48.364;-1.224;2023-05-10T03:43:03;99686.00;;;11.03;91.01
70544;BME280;58097;48.364;-1.224;2023-05-10T03:45:28;99690.66;;;11.02;91.04
70544;BME280;58097;48.364;-1.224;2023-05-10T03:47:53;99685.31;;;11.01;90.95
70544;BME280;58097;48.364;-1.224;2023-05-10T03:50:19;99682.53;;;11.01;90.83
70544;BME280;58097;48.364;-1.224;2023-05-10T03:52:45;99682.72;;;10.99;90.94
70544;BME280;58097;48.364;-1.224;2023-05-10T03:55:10;99679.09;;;10.99;90.84
70544;BME280;58097;48.364;-1.224;2023-05-10T03:57:35;99678.53;;;10.95;90.72
70544;BME280;58097;48.364;-1.224;2023-05-10T04:00:02;99685.97;;;10.95;90.59
70544;BME280;58097;48.364;-1.224;2023-05-10T04:02:27;99680.44;;;10.95;90.51
70544;BME280;58097;48.364;-1.224;2023-05-10T04:04:53;99683.53;;;10.92;90.41
70544;BME280;58097;48.364;-1.224;2023-05-10T04:07:18;99697.19;;;10.93;90.30
70544;BME280;58097;48.364;-1.224;2023-05-10T04:09:43;99692.53;;;10.94;90.45
70544;BME280;58097;48.364;-1.224;2023-05-10T04:12:09;99693.03;;;10.89;90.60
70544;BME280;58097;48.364;-1.224;2023-05-10T04:14:34;99690.97;;;10.91;90.61
70544;BME280;58097;48.364;-1.224;2023-05-10T04:17:00;99685.94;;;10.86;90.67
70544;BME280;58097;48.364;-1.224;2023-05-10T04:19:29;99690.63;;;10.86;90.43
70544;BME280;58097;48.364;-1.224;2023-05-10T04:21:54;99690.25;;;10.81;90.44
70544;BME280;58097;48.364;-1.224;2023-05-10T04:24:20;99695.59;;;10.74;90.76
70544;BME280;58097;48.364;-1.224;2023-05-10T04:26:45;99695.78;;;10.73;90.62
70544;BME280;58097;48.364;-1.224;2023-05-10T04:29:10;99693.16;;;10.71;90.61
70544;BME280;58097;48.364;-1.224;2023-05-10T04:31:36;99690.03;;;10.66;90.72
70544;BME280;58097;48.364;-1.224;2023-05-10T04:34:01;99699.88;;;10.69;90.57
70544;BME280;58097;48.364;-1.224;2023-05-10T04:36:26;99693.97;;;10.64;90.74
70544;BME280;58097;48.364;-1.224;2023-05-10T04:38:52;99689.66;;;10.61;90.94
70544;BME280;58097;48.364;-1.224;2023-05-10T04:41:18;99692.09;;;10.64;91.21
70544;BME280;58097;48.364;-1.224;2023-05-10T04:43:43;99686.03;;;10.61;91.32
70544;BME280;58097;48.364;-1.224;2023-05-10T04:46:08;99683.97;;;10.63;91.13
70544;BME280;58097;48.364;-1.224;2023-05-10T04:48:34;99692.41;;;10.61;91.36
70544;BME280;58097;48.364;-1.224;2023-05-10T04:50:59;99696.91;;;10.62;91.27
70544;BME280;58097;48.364;-1.224;2023-05-10T04:53:25;99690.34;;;10.63;91.08
70544;BME280;58097;48.364;-1.224;2023-05-10T04:55:50;99695.19;;;10.61;91.19
70544;BME280;58097;48.364;-1.224;2023-05-10T04:58:15;99703.66;;;10.60;91.09
70544;BME280;58097;48.364;-1.224;2023-05-10T05:00:41;99699.16;;;10.59;91.21
70544;BME280;58097;48.364;-1.224;2023-05-10T05:03:07;99703.47;;;10.61;91.23
70544;BME280;58097;48.364;-1.224;2023-05-10T05:05:32;99693.28;;;10.62;90.92
70544;BME280;58097;48.364;-1.224;2023-05-10T05:07:58;99706.94;;;10.63;91.11
70544;BME280;58097;48.364;-1.224;2023-05-10T05:10:23;99709.69;;;10.63;91.02
70544;BME280;58097;48.364;-1.224;2023-05-10T05:12:48;99706.25;;;10.61;91.30
70544;BME280;58097;48.364;-1.224;2023-05-10T05:15:14;99717.13;;;10.63;91.60
70544;BME280;58097;48.364;-1.224;2023-05-10T05:17:41;99716.78;;;10.66;92.04
70544;BME280;58097;48.364;-1.224;2023-05-10T05:20:08;99717.88;;;10.73;91.77
70544;BME280;58097;48.364;-1.224;2023-05-10T05:22:33;99720.13;;;10.77;91.67
70544;BME280;58097;48.364;-1.224;2023-05-10T05:24:58;99715.31;;;10.79;92.15
70544;BME280;58097;48.364;-1.224;2023-05-10T05:27:24;99715.66;;;10.84;91.59
70544;BME280;58097;48.364;-1.224;2023-05-10T05:29:55;99720.84;;;10.88;91.87
70544;BME280;58097;48.364;-1.224;2023-05-10T05:32:20;99721.53;;;10.90;92.10
70544;BME280;58097;48.364;-1.224;2023-05-10T05:34:46;99710.16;;;10.93;92.38
70544;BME280;58097;48.364;-1.224;2023-05-10T05:37:15;99732.09;;;10.94;92.73
70544;BME280;58097;48.364;-1.224;2023-05-10T05:39:41;99732.63;;;10.98;92.75
70544;BME280;58097;48.364;-1.224;2023-05-10T05:42:07;99728.69;;;11.08;92.54
70544;BME280;58097;48.364;-1.224;2023-05-10T05:44:33;99741.16;;;11.12;92.65
70544;BME280;58097;48.364;-1.224;2023-05-10T05:46:58;99738.03;;;11.15;92.54
70544;BME280;58097;48.364;-1.224;2023-05-10T05:49:23;99752.72;;;11.16;92.14
70544;BME280;58097;48.364;-1.224;2023-05-10T05:51:49;99745.13;;;11.18;91.84
70544;BME280;58097;48.364;-1.224;2023-05-10T05:54:15;99744.25;;;11.17;92.03
70544;BME280;58097;48.364;-1.224;2023-05-10T05:56:40;99755.84;;;11.21;91.74
70544;BME280;58097;48.364;-1.224;2023-05-10T05:59:06;99756.72;;;11.22;92.12
70544;BME280;58097;48.364;-1.224;2023-05-10T06:01:31;99766.91;;;11.21;92.21
70544;BME280;58097;48.364;-1.224;2023-05-10T06:03:56;99759.84;;;11.27;92.32
70544;BME280;58097;48.364;-1.224;2023-05-10T06:06:22;99759.69;;;11.28;92.59
70544;BME280;58097;48.364;-1.224;2023-05-10T06:08:47;99763.84;;;11.32;92.50
70544;BME280;58097;48.364;-1.224;2023-05-10T06:11:12;99764.72;;;11.33;92.92
70544;BME280;58097;48.364;-1.224;2023-05-10T06:13:38;99759.00;;;11.42;93.36
70544;BME280;58097;48.364;-1.224;2023-05-10T06:16:03;99769.03;;;11.43;93.00
70544;BME280;58097;48.364;-1.224;2023-05-10T06:18:29;99765.75;;;11.48;93.37
70544;BME280;58097;48.364;-1.224;2023-05-10T06:20:54;99762.47;;;11.44;93.14
70544;BME280;58097;48.364;-1.224;2023-05-10T06:23:19;99768.00;;;11.44;93.30
70544;BME280;58097;48.364;-1.224;2023-05-10T06:25:45;99765.06;;;11.46;93.23
70544;BME280;58097;48.364;-1.224;2023-05-10T06:28:10;99762.81;;;11.49;93.31
70544;BME280;58097;48.364;-1.224;2023-05-10T06:30:36;99766.97;;;11.54;93.49
70544;BME280;58097;48.364;-1.224;2023-05-10T06:33:02;99771.84;;;11.60;92.87
70544;BME280;58097;48.364;-1.224;2023-05-10T06:35:28;99767.00;;;11.62;93.04
70544;BME280;58097;48.364;-1.224;2023-05-10T06:37:54;99784.31;;;11.64;93.11
70544;BME280;58097;48.364;-1.224;2023-05-10T06:40:19;99780.34;;;11.66;92.62
70544;BME280;58097;48.364;-1.224;2023-05-10T06:42:45;99780.84;;;11.62;92.86
70544;BME280;58097;48.364;-1.224;2023-05-10T06:45:11;99777.03;;;11.63;92.75
70544;BME280;58097;48.364;-1.224;2023-05-10T06:47:37;99786.72;;;11.59;92.25
70544;BME280;58097;48.364;-1.224;2023-05-10T06:50:02;99783.41;;;11.55;92.33
70544;BME280;58097;48.364;-1.224;2023-05-10T06:52:28;99788.78;;;11.48;92.77
70544;BME280;58097;48.364;-1.224;2023-05-10T06:54:53;99784.09;;;11.49;92.71
70544;BME280;58097;48.364;-1.224;2023-05-10T06:57:18;99782.88;;;11.52;92.21
70544;BME280;58097;48.364;-1.224;2023-05-10T06:59:44;99784.97;;;11.49;92.46
70544;BME280;58097;48.364;-1.224;2023-05-10T07:02:10;99784.78;;;11.51;93.06
70544;BME280;58097;48.364;-1.224;2023-05-10T07:04:35;99792.75;;;11.54;93.21
70544;BME280;58097;48.364;-1.224;2023-05-10T07:07:00;99788.63;;;11.58;92.67
70544;BME280;58097;48.364;-1.224;2023-05-10T07:09:26;99792.44;;;11.65;92.39
70544;BME280;58097;48.364;-1.224;2023-05-10T07:11:51;99792.63;;;11.72;92.79
70544;BME280;58097;48.364;-1.224;2023-05-10T07:14:16;99779.97;;;11.77;92.90
70544;BME280;58097;48.364;-1.224;2023-05-10T07:16:42;99783.13;;;11.83;93.02
70544;BME280;58097;48.364;-1.224;2023-05-10T07:19:07;99784.19;;;11.90;92.93
70544;BME280;58097;48.364;-1.224;2023-05-10T07:21:33;99779.50;;;11.90;92.72
70544;BME280;58097;48.364;-1.224;2023-05-10T07:23:58;99775.34;;;11.94;92.91
70544;BME280;58097;48.364;-1.224;2023-05-10T07:26:24;99773.97;;;11.90;92.86
70544;BME280;58097;48.364;-1.224;2023-05-10T07:28:50;99782.97;;;12.00;93.07
70544;BME280;58097;48.364;-1.224;2023-05-10T07:31:15;99781.22;;;12.07;92.70
70544;BME280;58097;48.364;-1.224;2023-05-10T07:33:41;99776.56;;;12.08;93.47
70544;BME280;58097;48.364;-1.224;2023-05-10T07:36:06;99783.16;;;12.15;93.21
70544;BME280;58097;48.364;-1.224;2023-05-10T07:38:31;99783.16;;;12.15;92.93
70544;BME280;58097;48.364;-1.224;2023-05-10T07:40:57;99787.13;;;12.21;92.77
70544;BME280;58097;48.364;-1.224;2023-05-10T07:43:22;99789.88;;;12.21;92.80
70544;BME280;58097;48.364;-1.224;2023-05-10T07:45:47;99786.41;;;12.27;92.69
70544;BME280;58097;48.364;-1.224;2023-05-10T07:48:13;99782.25;;;12.31;93.12
70544;BME280;58097;48.364;-1.224;2023-05-10T07:50:38;99778.75;;;12.37;92.78
70544;BME280;58097;48.364;-1.224;2023-05-10T07:53:04;99781.00;;;12.41;92.86
70544;BME280;58097;48.364;-1.224;2023-05-10T07:55:29;99774.28;;;12.44;93.07
70544;BME280;58097;48.364;-1.224;2023-05-10T07:57:55;99788.28;;;12.51;92.68
70544;BME280;58097;48.364;-1.224;2023-05-10T08:00:20;99777.69;;;12.54;92.68
70544;BME280;58097;48.364;-1.224;2023-05-10T08:02:46;99781.84;;;12.58;92.81
70544;BME280;58097;48.364;-1.224;2023-05-10T08:05:12;99776.81;;;12.62;92.40
70544;BME280;58097;48.364;-1.224;2023-05-10T08:07:37;99777.31;;;12.65;92.15
70544;BME280;58097;48.364;-1.224;2023-05-10T08:10:03;99778.34;;;12.64;92.19
70544;BME280;58097;48.364;-1.224;2023-05-10T08:12:28;99785.25;;;12.68;92.39
70544;BME280;58097;48.364;-1.224;2023-05-10T08:14:54;99790.63;;;12.70;92.44
70544;BME280;58097;48.364;-1.224;2023-05-10T08:17:19;99793.94;;;12.74;92.31
70544;BME280;58097;48.364;-1.224;2023-05-10T08:19:45;99791.50;;;12.79;92.31
70544;BME280;58097;48.364;-1.224;2023-05-10T08:22:10;99799.63;;;12.80;92.43
70544;BME280;58097;48.364;-1.224;2023-05-10T08:24:35;99797.38;;;12.84;92.51
70544;BME280;58097;48.364;-1.224;2023-05-10T08:27:04;99792.38;;;12.79;92.47
70544;BME280;58097;48.364;-1.224;2023-05-10T08:29:30;99797.19;;;12.85;92.38
70544;BME280;58097;48.364;-1.224;2023-05-10T08:31:55;99794.56;;;12.92;93.00
70544;BME280;58097;48.364;-1.224;2023-05-10T08:34:20;99795.56;;;12.99;93.39
70544;BME280;58097;48.364;-1.224;2023-05-10T08:36:45;99802.16;;;12.98;93.03
70544;BME280;58097;48.364;-1.224;2023-05-10T08:39:11;99799.38;;;13.06;93.03
70544;BME280;58097;48.364;-1.224;2023-05-10T08:41:38;99803.50;;;13.10;93.16
70544;BME280;58097;48.364;-1.224;2023-05-10T08:44:04;99800.38;;;13.13;92.86
70544;BME280;58097;48.364;-1.224;2023-05-10T08:46:31;99800.88;;;13.17;93.05
70544;BME280;58097;48.364;-1.224;2023-05-10T08:49:02;99801.59;;;13.19;92.74
70544;BME280;58097;48.364;-1.224;2023-05-10T08:51:34;99805.56;;;13.16;92.48
70544;BME280;58097;48.364;-1.224;2023-05-10T08:54:02;99803.63;;;13.17;92.54
70544;BME280;58097;48.364;-1.224;2023-05-10T08:56:28;99809.06;;;13.10;92.54
70544;BME280;58097;48.364;-1.224;2023-05-10T08:58:54;99801.09;;;13.07;92.13
70544;BME280;58097;48.364;-1.224;2023-05-10T09:01:21;99803.19;;;13.05;92.21
70544;BME280;58097;48.364;-1.224;2023-05-10T09:03:46;99795.72;;;13.06;92.94
70544;BME280;58097;48.364;-1.224;2023-05-10T09:06:13;99799.50;;;13.13;93.65
70544;BME280;58097;48.364;-1.224;2023-05-10T09:08:40;99804.00;;;13.22;94.03
70544;BME280;58097;48.364;-1.224;2023-05-10T09:11:07;99802.56;;;13.34;93.50
70544;BME280;58097;48.364;-1.224;2023-05-10T09:13:32;99801.97;;;13.47;94.36
70544;BME280;58097;48.364;-1.224;2023-05-10T09:15:58;99797.03;;;13.57;94.01
70544;BME280;58097;48.364;-1.224;2023-05-10T09:18:24;99795.56;;;13.69;94.27
70544;BME280;58097;48.364;-1.224;2023-05-10T09:20:50;99796.47;;;13.84;94.07
70544;BME280;58097;48.364;-1.224;2023-05-10T09:23:15;99801.63;;;13.95;93.72
70544;BME280;58097;48.364;-1.224;2023-05-10T09:25:41;99798.84;;;13.95;92.68
70544;BME280;58097;48.364;-1.224;2023-05-10T09:28:08;99810.63;;;13.98;93.24
70544;BME280;58097;48.364;-1.224;2023-05-10T09:30:35;99812.09;;;13.85;92.07
70544;BME280;58097;48.364;-1.224;2023-05-10T09:33:00;99820.50;;;13.77;91.98
70544;BME280;58097;48.364;-1.224;2023-05-10T09:35:28;99820.94;;;13.66;91.63
70544;BME280;58097;48.364;-1.224;2023-05-10T09:37:55;99835.03;;;13.56;91.77
70544;BME280;58097;48.364;-1.224;2023-05-10T09:40:26;99839.81;;;13.40;91.53
70544;BME280;58097;48.364;-1.224;2023-05-10T09:43:01;99838.66;;;13.26;92.27
70544;BME280;58097;48.364;-1.224;2023-05-10T09:45:29;99836.47;;;13.05;92.26
70544;BME280;58097;48.364;-1.224;2023-05-10T09:47:55;99832.47;;;12.99;92.71
70544;BME280;58097;48.364;-1.224;2023-05-10T09:50:22;99838.41;;;12.96;93.50
70544;BME280;58097;48.364;-1.224;2023-05-10T09:55:18;99840.97;;;12.98;93.20
70544;BME280;58097;48.364;-1.224;2023-05-10T09:57:43;99834.06;;;13.02;93.71
70544;BME280;58097;48.364;-1.224;2023-05-10T10:00:09;99834.38;;;13.07;93.39
70544;BME280;58097;48.364;-1.224;2023-05-10T10:02:35;99828.13;;;13.13;93.31
70544;BME280;58097;48.364;-1.224;2023-05-10T10:05:02;99828.47;;;13.18;93.57
70544;BME280;58097;48.364;-1.224;2023-05-10T10:07:28;99839.22;;;13.13;93.37
70544;BME280;58097;48.364;-1.224;2023-05-10T10:09:54;99826.03;;;13.15;93.89
70544;BME280;58097;48.364;-1.224;2023-05-10T10:12:20;99828.28;;;13.20;94.62
70544;BME280;58097;48.364;-1.224;2023-05-10T10:14:47;99831.53;;;13.31;95.45
70544;BME280;58097;48.364;-1.224;2023-05-10T10:17:13;99831.81;;;13.45;95.74
70544;BME280;58097;48.364;-1.224;2023-05-10T10:19:39;99828.78;;;13.62;95.58
70544;BME280;58097;48.364;-1.224;2023-05-10T10:22:05;99828.84;;;13.77;95.85
70544;BME280;58097;48.364;-1.224;2023-05-10T10:24:30;99826.66;;;13.87;95.15
70544;BME280;58097;48.364;-1.224;2023-05-10T10:27:01;99824.06;;;13.86;93.75
70544;BME280;58097;48.364;-1.224;2023-05-10T10:29:47;99827.72;;;13.86;93.58
70544;BME280;58097;48.364;-1.224;2023-05-10T10:34:46;99822.72;;;14.05;94.49
70544;BME280;58097;48.364;-1.224;2023-05-10T10:37:12;99825.50;;;14.27;94.73
70544;BME280;58097;48.364;-1.224;2023-05-10T10:39:38;99822.72;;;14.50;94.63
70544;BME280;58097;48.364;-1.224;2023-05-10T10:42:04;99823.69;;;14.72;94.27
70544;BME280;58097;48.364;-1.224;2023-05-10T10:49:28;99812.78;;;14.85;90.77
70544;BME280;58097;48.364;-1.224;2023-05-10T10:52:13;99813.06;;;14.76;89.82
70544;BME280;58097;48.364;-1.224;2023-05-10T10:54:39;99817.66;;;14.69;90.01
70544;BME280;58097;48.364;-1.224;2023-05-10T10:57:14;99817.56;;;14.62;90.26
70544;BME280;58097;48.364;-1.224;2023-05-10T10:59:43;99835.19;;;14.54;90.51
70544;BME280;58097;48.364;-1.224;2023-05-10T11:08:10;99821.13;;;14.10;91.45
70544;BME280;58097;48.364;-1.224;2023-05-10T11:10:36;99823.03;;;14.10;91.64
70544;BME280;58097;48.364;-1.224;2023-05-10T11:13:02;99827.97;;;14.22;93.89
70544;BME280;58097;48.364;-1.224;2023-05-10T11:15:33;99822.25;;;14.47;95.08
70544;BME280;58097;48.364;-1.224;2023-05-10T11:18:18;99809.13;;;14.85;95.22
70544;BME280;58097;48.364;-1.224;2023-05-10T11:21:00;99814.59;;;15.08;94.14
70544;BME280;58097;48.364;-1.224;2023-05-10T11:23:49;99816.97;;;15.26;91.63
70544;BME280;58097;48.364;-1.224;2023-05-10T11:26:15;99820.25;;;15.14;90.07
70544;BME280;58097;48.364;-1.224;2023-05-10T11:28:48;99822.16;;;14.99;89.79
70544;BME280;58097;48.364;-1.224;2023-05-10T11:31:15;99819.88;;;14.88;89.93
70544;BME280;58097;48.364;-1.224;2023-05-10T11:33:44;99817.38;;;14.78;90.10
70544;BME280;58097;48.364;-1.224;2023-05-10T11:36:14;99813.75;;;14.78;90.25
70544;BME280;58097;48.364;-1.224;2023-05-10T11:38:40;99816.22;;;14.73;89.06
70544;BME280;58097;48.364;-1.224;2023-05-10T11:41:08;99817.59;;;14.77;89.63
70544;BME280;58097;48.364;-1.224;2023-05-10T11:43:34;99811.72;;;14.86;90.40
70544;BME280;58097;48.364;-1.224;2023-05-10T11:46:02;99820.25;;;14.85;89.58
70544;BME280;58097;48.364;-1.224;2023-05-10T11:48:29;99813.22;;;14.74;88.64
70544;BME280;58097;48.364;-1.224;2023-05-10T11:50:54;99814.66;;;14.70;90.30
70544;BME280;58097;48.364;-1.224;2023-05-10T11:53:22;99809.22;;;14.92;92.03
70544;BME280;58097;48.364;-1.224;2023-05-10T11:55:47;99813.59;;;15.30;93.25
70544;BME280;58097;48.364;-1.224;2023-05-10T11:58:13;99804.78;;;15.41;92.35
70544;BME280;58097;48.364;-1.224;2023-05-10T12:00:38;99788.00;;;15.71;91.87
70544;BME280;58097;48.364;-1.224;2023-05-10T12:03:05;99802.69;;;15.79;90.40
70544;BME280;58097;48.364;-1.224;2023-05-10T12:05:34;99796.19;;;15.72;88.34
70544;BME280;58097;48.364;-1.224;2023-05-10T12:08:22;99796.75;;;15.53;87.99
70544;BME280;58097;48.364;-1.224;2023-05-10T12:10:48;99802.66;;;15.43;86.95
70544;BME280;58097;48.364;-1.224;2023-05-10T12:13:14;99804.31;;;15.38;87.04
70544;BME280;58097;48.364;-1.224;2023-05-10T12:15:40;99795.97;;;15.23;86.66
70544;BME280;58097;48.364;-1.224;2023-05-10T12:18:08;99800.84;;;15.36;87.93
70544;BME280;58097;48.364;-1.224;2023-05-10T12:20:35;99784.75;;;15.53;88.42
70544;BME280;58097;48.364;-1.224;2023-05-10T12:23:01;99799.94;;;15.86;89.65
70544;BME280;58097;48.364;-1.224;2023-05-10T12:25:33;99791.69;;;15.93;86.86
70544;BME280;58097;48.364;-1.224;2023-05-10T12:27:59;99793.63;;;15.92;84.91
70544;BME280;58097;48.364;-1.224;2023-05-10T12:30:30;99791.34;;;16.02;84.61
70544;BME280;58097;48.364;-1.224;2023-05-10T12:33:12;99777.41;;;16.02;83.68
70544;BME280;58097;48.364;-1.224;2023-05-10T12:35:45;99791.00;;;16.12;84.22
70544;BME280;58097;48.364;-1.224;2023-05-10T12:38:33;99795.13;;;15.95;81.62
70544;BME280;58097;48.364;-1.224;2023-05-10T12:41:07;99800.09;;;15.78;81.51
70544;BME280;58097;48.364;-1.224;2023-05-10T12:43:33;99788.22;;;15.55;81.30
70544;BME280;58097;48.364;-1.224;2023-05-10T12:46:04;99789.41;;;15.45;82.36
70544;BME280;58097;48.364;-1.224;2023-05-10T12:48:30;99791.03;;;15.40;82.16
70544;BME280;58097;48.364;-1.224;2023-05-10T12:50:56;99798.63;;;15.31;81.86
70544;BME280;58097;48.364;-1.224;2023-05-10T12:53:22;99802.09;;;15.33;82.20
70544;BME280;58097;48.364;-1.224;2023-05-10T12:55:47;99803.63;;;15.36;82.75
70544;BME280;58097;48.364;-1.224;2023-05-10T12:58:12;99802.47;;;15.30;81.82
70544;BME280;58097;48.364;-1.224;2023-05-10T13:00:38;99802.88;;;15.27;81.98
70544;BME280;58097;48.364;-1.224;2023-05-10T13:03:04;99805.84;;;15.26;81.64
70544;BME280;58097;48.364;-1.224;2023-05-10T13:05:33;99806.06;;;15.09;80.45
70544;BME280;58097;48.364;-1.224;2023-05-10T13:07:58;99798.66;;;15.16;80.83
70544;BME280;58097;48.364;-1.224;2023-05-10T13:10:24;99804.59;;;15.28;82.25
70544;BME280;58097;48.364;-1.224;2023-05-10T13:12:50;99807.56;;;15.41;82.25
70544;BME280;58097;48.364;-1.224;2023-05-10T13:15:15;99792.53;;;15.57;80.16
70544;BME280;58097;48.364;-1.224;2023-05-10T13:17:41;99794.78;;;15.83;81.72